createdAt,value
2022-11-02T00:02:07.574Z,32.80
2022-11-02T00:05:13.273Z,32.75
2022-11-02T00:08:15.191Z,33.90
2022-11-02T00:11:17.506Z,35.38
2022-11-02T00:14:19.424Z,32.78
2022-11-02T00:17:21.549Z,37.40
2022-11-02T00:20:23.613Z,37.33
2022-11-02T00:23:25.751Z,40.40
2022-11-02T00:26:28.847Z,39.97
2022-11-02T00:29:33.799Z,38.97
2022-11-02T00:32:36.457Z,42.17
2022-11-02T00:35:39.274Z,35.53
2022-11-02T00:38:41.280Z,34.30
2022-11-02T00:41:43.378Z,35.63
2022-11-02T00:44:45.346Z,40.50
2022-11-02T00:47:47.323Z,41.92
2022-11-02T00:50:49.394Z,36.90
2022-11-02T00:53:51.416Z,38.50
2022-11-02T00:56:53.527Z,30.48
2022-11-02T00:59:55.561Z,34.65
2022-11-02T01:03:01.774Z,35.83
2022-11-02T01:06:15.659Z,35.58
2022-11-02T01:09:17.714Z,33.63
2022-11-02T01:12:19.785Z,29.35
2022-11-02T01:15:21.899Z,37.35
2022-11-02T01:18:23.889Z,34.67
2022-11-02T01:21:26.709Z,35.17
2022-11-02T01:24:29.695Z,36.03
2022-11-02T01:27:32.176Z,37.17
2022-11-02T01:30:34.170Z,34.47
2022-11-02T01:33:36.452Z,35.95
2022-11-02T01:36:38.453Z,34.65
2022-11-02T01:39:40.479Z,35.70
2022-11-02T01:42:42.491Z,36.30
2022-11-02T01:45:44.734Z,33.28
2022-11-02T01:48:53.018Z,34.65
2022-11-02T01:52:11.767Z,34.17
2022-11-02T01:55:19.949Z,32.57
2022-11-02T01:58:22.397Z,30.10
2022-11-02T02:01:25.566Z,34.80
2022-11-02T02:04:28.694Z,33.63
2022-11-02T02:07:32.931Z,36.55
2022-11-02T02:10:36.037Z,32.80
2022-11-02T02:13:38.088Z,32.85
2022-11-02T02:16:58.826Z,34.08
2022-11-02T02:20:19.275Z,33.78
2022-11-02T02:23:39.202Z,34.60
2022-11-02T02:26:52.579Z,35.57
2022-11-02T02:30:03.493Z,34.88
2022-11-02T02:33:13.144Z,36.75
2022-11-02T02:36:48.276Z,36.20
2022-11-02T02:40:01.935Z,33.95
2022-11-02T02:43:15.875Z,36.17
2022-11-02T02:46:42.795Z,33.00
2022-11-02T02:49:56.884Z,33.40
2022-11-02T02:53:02.599Z,34.45
2022-11-02T02:56:06.258Z,33.50
2022-11-02T02:59:16.538Z,35.33
2022-11-02T03:02:25.711Z,33.10
2022-11-02T03:05:38.729Z,33.33
2022-11-02T03:08:43.782Z,32.63
2022-11-02T03:12:17.834Z,33.53
2022-11-02T03:15:43.382Z,31.23
2022-11-02T03:18:51.148Z,31.65
2022-11-02T03:22:04.962Z,33.10
2022-11-02T03:25:21.940Z,31.87
2022-11-02T03:28:26.771Z,29.23
2022-11-02T03:31:37.886Z,31.60
2022-11-02T03:34:59.424Z,31.98
2022-11-02T03:38:07.766Z,34.65
2022-11-02T03:41:11.549Z,32.50
2022-11-02T03:44:19.676Z,31.35
2022-11-02T03:47:23.275Z,32.80
2022-11-02T03:50:28.005Z,35.83
2022-11-02T03:53:42.192Z,31.90
2022-11-02T03:56:53.429Z,28.90
2022-11-02T04:00:16.373Z,29.80
2022-11-02T04:03:20.971Z,31.67
2022-11-02T04:06:23.655Z,30.58
2022-11-02T04:09:25.929Z,32.80
2022-11-02T04:12:54.065Z,30.67
2022-11-02T04:15:56.006Z,29.17
2022-11-02T04:19:16.718Z,28.37
2022-11-02T04:22:38.435Z,29.60
2022-11-02T04:25:40.396Z,31.15
2022-11-02T04:28:42.636Z,33.17
2022-11-02T04:31:44.575Z,32.33
2022-11-02T04:34:46.497Z,31.23
2022-11-02T04:38:07.325Z,32.80
2022-11-02T04:41:39.431Z,33.63
2022-11-02T04:44:41.437Z,29.30
2022-11-02T04:47:43.575Z,31.65
2022-11-02T04:50:45.540Z,33.07
2022-11-02T04:53:48.875Z,33.28
2022-11-02T04:56:50.938Z,29.75
2022-11-02T04:59:53.189Z,31.30
2022-11-02T05:02:55.407Z,33.85
2022-11-02T05:05:57.453Z,29.73
2022-11-02T05:08:59.401Z,30.40
2022-11-02T05:12:02.050Z,32.38
2022-11-02T05:15:05.071Z,27.20
2022-11-02T05:18:07.559Z,32.45
2022-11-02T05:21:11.359Z,31.60
2022-11-02T05:24:13.355Z,32.25
2022-11-02T05:27:15.557Z,28.33
2022-11-02T05:30:18.355Z,30.52
2022-11-02T05:33:20.519Z,30.55
2022-11-02T05:36:22.600Z,27.80
2022-11-02T05:39:24.615Z,34.22
2022-11-02T05:42:27.027Z,32.75
2022-11-02T05:45:29.104Z,32.05
2022-11-02T05:48:32.967Z,31.95
2022-11-02T05:51:34.929Z,32.07
2022-11-02T05:54:36.893Z,30.88
2022-11-02T05:57:38.985Z,34.50
2022-11-02T06:00:40.968Z,33.13
2022-11-02T06:03:42.938Z,32.22
2022-11-02T06:06:45.907Z,33.30
2022-11-02T06:09:47.940Z,34.95
2022-11-02T06:12:58.212Z,38.40
2022-11-02T06:16:01.245Z,33.70
2022-11-02T06:19:03.441Z,35.50
2022-11-02T06:22:05.459Z,35.23
2022-11-02T06:25:08.687Z,33.33
2022-11-02T06:28:10.765Z,35.05
2022-11-02T06:31:13.406Z,37.90
2022-11-02T06:34:15.382Z,35.17
2022-11-02T06:37:17.468Z,30.57
2022-11-02T06:40:21.449Z,34.88
2022-11-02T06:43:26.609Z,40.53
2022-11-02T06:46:28.624Z,47.35
2022-11-02T06:49:30.778Z,56.58
2022-11-02T06:52:33.114Z,33.50
2022-11-02T06:55:35.038Z,34.08
2022-11-02T06:58:37.311Z,32.97
2022-11-02T07:01:39.547Z,31.37
2022-11-02T07:04:41.866Z,28.12
2022-11-02T07:07:43.896Z,30.00
2022-11-02T07:10:46.175Z,37.30
2022-11-02T07:13:48.196Z,30.00
2022-11-02T07:16:50.197Z,29.42
2022-11-02T07:19:52.130Z,31.67
2022-11-02T07:22:59.646Z,31.63
2022-11-02T07:26:02.473Z,27.33
2022-11-02T07:29:05.034Z,27.20
2022-11-02T07:32:25.901Z,27.37
2022-11-02T07:35:28.091Z,29.60
2022-11-02T07:38:30.133Z,28.63
2022-11-02T07:41:32.244Z,29.87
2022-11-02T07:44:34.240Z,28.00
2022-11-02T07:47:43.325Z,30.60
2022-11-02T07:50:45.403Z,31.90
2022-11-02T07:53:47.350Z,25.27
2022-11-02T07:56:49.373Z,25.77
2022-11-02T07:59:51.626Z,24.55
2022-11-02T08:02:58.376Z,27.45
2022-11-02T08:06:03.671Z,28.55
2022-11-02T08:09:05.921Z,25.30
2022-11-02T08:12:08.089Z,25.67
2022-11-02T08:15:10.528Z,26.45
2022-11-02T08:18:15.391Z,25.27
2022-11-02T08:21:17.459Z,26.48
2022-11-02T08:24:19.393Z,25.53
2022-11-02T08:27:21.410Z,26.00
2022-11-02T08:30:23.460Z,28.73
2022-11-02T08:33:25.469Z,25.05
2022-11-02T08:36:27.504Z,24.42
2022-11-02T08:39:29.622Z,23.23
2022-11-02T08:42:31.660Z,27.95
2022-11-02T08:46:08.274Z,26.33
2022-11-02T08:48:57.262Z,25.77
2022-11-02T08:51:59.251Z,23.95
2022-11-02T08:55:01.682Z,26.10
2022-11-02T08:58:04.007Z,27.08
2022-11-02T09:01:06.295Z,25.52
2022-11-02T09:04:08.269Z,25.33
2022-11-02T09:07:10.227Z,24.05
2022-11-02T09:10:13.042Z,23.40
2022-11-02T09:13:16.254Z,25.67
2022-11-02T09:16:18.264Z,26.05
2022-11-02T09:19:20.273Z,24.65
2022-11-02T09:22:22.388Z,25.42
2022-11-02T09:25:24.672Z,28.70
2022-11-02T09:28:26.966Z,24.83
2022-11-02T09:31:30.282Z,27.17
2022-11-02T09:34:32.250Z,28.55
2022-11-02T09:37:34.501Z,23.50
2022-11-02T09:40:39.111Z,23.17
2022-11-02T09:44:00.818Z,23.77
2022-11-02T09:47:55.729Z,23.35
2022-11-02T09:50:39.070Z,20.73
2022-11-02T09:54:09.415Z,21.00
2022-11-02T09:57:37.148Z,20.37
2022-11-02T10:00:42.216Z,19.15
2022-11-02T10:04:05.900Z,19.17
2022-11-02T10:07:20.780Z,18.58
2022-11-02T10:10:22.879Z,19.00
2022-11-02T10:13:33.994Z,18.23
2022-11-02T10:16:45.342Z,16.73
2022-11-02T10:19:55.418Z,16.98
2022-11-02T10:23:07.501Z,15.18
2022-11-02T10:26:23.708Z,19.77
2022-11-02T10:30:03.308Z,14.50
2022-11-02T10:33:14.257Z,13.60
2022-11-02T10:36:39.225Z,15.68
2022-11-02T10:39:53.083Z,15.52
2022-11-02T10:43:10.792Z,14.75
2022-11-02T10:46:38.412Z,14.70
2022-11-02T10:50:11.005Z,13.85
2022-11-02T10:56:41.409Z,13.18
2022-11-02T10:59:43.387Z,12.75
2022-11-02T11:02:45.409Z,12.47
2022-11-02T11:05:50.202Z,13.45
2022-11-02T11:08:53.770Z,12.55
2022-11-02T11:12:02.513Z,13.00
2022-11-02T11:21:52.058Z,12.48
2022-11-02T11:25:14.699Z,13.75
2022-11-02T11:28:28.639Z,13.25
2022-11-02T11:31:31.129Z,12.35
2022-11-02T11:34:36.045Z,14.40
2022-11-02T11:37:49.809Z,12.23
2022-11-02T11:40:55.961Z,13.35
2022-11-02T11:43:58.558Z,13.00
2022-11-02T11:47:01.035Z,14.93
2022-11-02T11:50:28.462Z,12.50
2022-11-02T11:53:31.954Z,12.57
2022-11-02T11:56:34.835Z,12.20
2022-11-02T11:59:43.102Z,18.92
2022-11-02T12:03:06.645Z,13.93
2022-11-02T12:06:33.401Z,14.03
2022-11-02T12:10:01.382Z,17.35
2022-11-02T12:13:12.481Z,19.70
2022-11-02T12:16:44.417Z,13.52
2022-11-02T12:20:11.904Z,17.25
2022-11-02T12:23:38.651Z,17.37
2022-11-02T12:27:02.128Z,16.77
2022-11-02T12:30:23.208Z,20.92
2022-11-02T12:33:49.505Z,14.98
2022-11-02T12:37:41.253Z,15.98
2022-11-02T12:40:43.728Z,17.23
2022-11-02T12:43:51.021Z,15.55
2022-11-02T12:47:22.250Z,19.35
2022-11-02T12:50:53.568Z,20.85
2022-11-02T12:54:01.092Z,19.62
2022-11-02T12:57:03.673Z,17.90
2022-11-02T13:00:17.313Z,27.02
2022-11-02T13:03:52.763Z,32.17
2022-11-02T13:07:09.587Z,21.98
2022-11-02T13:10:26.723Z,27.92
2022-11-02T13:13:39.764Z,21.13
2022-11-02T13:17:05.541Z,19.60
2022-11-02T13:20:17.030Z,18.75
2022-11-02T13:26:41.597Z,17.08
2022-11-02T13:29:51.006Z,14.80
2022-11-02T13:33:00.018Z,14.87
2022-11-02T13:36:01.944Z,17.12
2022-11-02T13:39:23.837Z,16.02
2022-11-02T13:42:55.091Z,16.05
2022-11-02T13:46:07.233Z,14.33
2022-11-02T13:49:44.721Z,15.10
2022-11-02T13:52:56.687Z,17.37
2022-11-02T13:56:08.628Z,17.65
2022-11-02T13:59:21.908Z,19.05
2022-11-02T14:02:25.038Z,16.10
2022-11-02T14:05:45.114Z,18.62
2022-11-02T14:08:49.770Z,16.58
2022-11-02T14:11:52.062Z,17.42
2022-11-02T14:15:12.433Z,19.83
2022-11-02T14:18:27.195Z,22.60
2022-11-02T14:22:05.791Z,20.23
2022-11-02T14:25:14.941Z,16.55
2022-11-02T14:28:22.929Z,17.40
2022-11-02T14:31:43.390Z,15.27
2022-11-02T14:35:10.099Z,18.67
2022-11-02T14:38:42.828Z,15.63
2022-11-02T14:41:59.995Z,14.95
2022-11-02T14:45:23.266Z,16.08
2022-11-02T14:48:31.154Z,17.52
2022-11-02T14:51:38.649Z,18.03
2022-11-02T14:54:51.050Z,18.67
2022-11-02T14:57:54.083Z,21.70
2022-11-02T15:00:59.979Z,16.62
2022-11-02T15:04:08.069Z,20.95
2022-11-02T15:07:27.129Z,20.17
2022-11-02T15:10:32.598Z,19.10
2022-11-02T15:13:48.324Z,27.13
2022-11-02T15:16:50.799Z,21.17
2022-11-02T15:19:59.008Z,23.25
2022-11-02T15:23:14.401Z,19.00
2022-11-02T15:26:30.348Z,23.50
2022-11-02T15:29:37.183Z,21.83
2022-11-02T15:32:44.697Z,22.50
2022-11-02T15:35:48.289Z,22.87
2022-11-02T15:38:52.842Z,23.63
2022-11-02T15:42:30.444Z,25.25
2022-11-02T15:46:03.618Z,20.25
2022-11-02T15:49:31.119Z,25.75
2022-11-02T15:53:16.433Z,24.00
2022-11-02T15:56:28.024Z,22.90
2022-11-02T15:59:44.454Z,27.08
2022-11-02T16:02:49.987Z,24.98
2022-11-02T16:05:52.738Z,21.77
2022-11-02T16:08:58.808Z,24.25
2022-11-02T16:12:16.721Z,28.47
2022-11-02T16:15:19.708Z,22.77
2022-11-02T16:18:37.414Z,26.95
2022-11-02T16:21:39.475Z,31.55
2022-11-02T16:24:46.293Z,33.75
2022-11-02T16:27:49.387Z,33.73
2022-11-02T16:31:04.276Z,29.33
2022-11-02T16:34:37.286Z,29.80
2022-11-02T16:37:40.065Z,33.08
2022-11-02T16:40:45.706Z,33.10
2022-11-02T16:43:50.287Z,35.43
2022-11-02T16:47:16.322Z,33.90
2022-11-02T16:50:24.890Z,29.02
2022-11-02T16:53:30.068Z,31.92
2022-11-02T16:56:33.108Z,23.38
2022-11-02T16:59:37.057Z,24.87
2022-11-02T17:02:44.136Z,29.98
2022-11-02T17:05:49.619Z,23.40
2022-11-02T17:08:55.321Z,34.63
2022-11-02T17:12:01.290Z,34.97
2022-11-02T17:15:16.834Z,22.47
2022-11-02T17:18:21.660Z,21.23
2022-11-02T17:21:29.685Z,22.77
2022-11-02T17:24:35.378Z,22.92
2022-11-02T17:27:42.345Z,25.95
2022-11-02T17:30:48.035Z,30.20
2022-11-02T17:33:53.916Z,27.83
2022-11-02T17:36:56.600Z,26.77
2022-11-02T17:40:03.101Z,26.55
2022-11-02T17:43:07.213Z,28.65
2022-11-02T17:46:11.212Z,26.40
2022-11-02T17:49:14.609Z,27.05
2022-11-02T17:52:18.378Z,26.10
2022-11-02T17:55:27.868Z,27.98
2022-11-02T17:58:30.959Z,29.40
2022-11-02T18:01:34.316Z,29.80
2022-11-02T18:04:37.575Z,30.08
2022-11-02T18:07:41.675Z,26.45
2022-11-02T18:10:48.182Z,26.35
2022-11-02T18:13:52.256Z,29.05
2022-11-02T18:16:57.248Z,29.27
2022-11-02T18:20:00.690Z,29.27
2022-11-02T18:23:05.050Z,28.20
2022-11-02T18:26:11.180Z,29.80
2022-11-02T18:29:14.108Z,29.90
2022-11-02T18:32:30.024Z,33.23
2022-11-02T18:35:33.350Z,43.53
2022-11-02T18:38:37.300Z,41.78
2022-11-02T18:41:43.734Z,38.28
2022-11-02T18:44:46.584Z,39.45
2022-11-02T18:47:50.622Z,36.23
2022-11-02T18:50:54.503Z,35.13
2022-11-02T18:54:00.448Z,36.63
2022-11-02T18:57:03.785Z,37.72
2022-11-02T19:00:09.624Z,35.72
2022-11-02T19:03:13.297Z,32.70
2022-11-02T19:06:36.827Z,35.10
2022-11-02T19:09:40.961Z,31.60
2022-11-02T19:12:43.885Z,33.88
2022-11-02T19:15:47.342Z,33.90
2022-11-02T19:18:50.841Z,30.10
2022-11-02T19:21:55.114Z,38.95
2022-11-02T19:24:58.710Z,32.17
2022-11-02T19:28:01.989Z,30.23
2022-11-02T19:31:06.642Z,31.67
2022-11-02T19:34:09.969Z,36.13
2022-11-02T19:37:13.396Z,35.78
2022-11-02T19:40:16.518Z,45.97
2022-11-02T19:43:23.264Z,42.95
2022-11-02T19:46:28.136Z,33.13
2022-11-02T19:49:33.813Z,36.37
2022-11-02T19:52:37.930Z,39.83
2022-11-02T19:55:53.633Z,42.60
2022-11-02T19:59:00.747Z,35.63
2022-11-02T20:02:06.733Z,35.08
2022-11-02T20:05:28.360Z,35.37
2022-11-02T20:08:36.256Z,36.40
2022-11-02T20:11:45.591Z,36.28
2022-11-02T20:14:49.899Z,35.13
2022-11-02T20:18:18.555Z,33.55
2022-11-02T20:21:31.033Z,36.47
2022-11-02T20:24:38.044Z,34.97
2022-11-02T20:27:45.786Z,38.72
2022-11-02T20:30:50.834Z,35.83
2022-11-02T20:33:56.100Z,32.00
2022-11-02T20:37:00.050Z,34.80
2022-11-02T20:40:09.456Z,34.33
2022-11-02T20:43:15.165Z,36.33
2022-11-02T20:46:37.866Z,36.33
2022-11-02T20:49:51.333Z,40.40
2022-11-02T20:53:00.324Z,37.53
2022-11-02T20:56:05.026Z,36.80
2022-11-02T20:59:09.219Z,39.72
2022-11-02T21:02:13.659Z,38.95
2022-11-02T21:05:18.485Z,40.45
2022-11-02T21:08:23.425Z,36.60
2022-11-02T21:11:46.487Z,35.30
2022-11-02T21:14:51.813Z,40.25
2022-11-02T21:17:56.016Z,38.10
2022-11-02T21:21:24.127Z,38.90
2022-11-02T21:24:27.363Z,42.50
2022-11-02T21:27:30.857Z,40.20
2022-11-02T21:30:34.965Z,41.08
2022-11-02T21:33:39.438Z,40.55
2022-11-02T21:36:43.222Z,38.30
2022-11-02T21:39:47.845Z,38.87
2022-11-02T21:42:51.811Z,35.97
2022-11-02T21:45:57.776Z,38.75
2022-11-02T21:49:01.804Z,44.70
2022-11-02T21:52:05.029Z,41.03
2022-11-02T21:55:08.466Z,39.03
2022-11-02T21:58:11.629Z,39.00
2022-11-02T22:01:39.605Z,37.97
2022-11-02T22:04:43.427Z,36.97
2022-11-02T22:08:16.196Z,33.55
2022-11-02T22:11:22.665Z,31.90
2022-11-02T22:14:26.114Z,35.00
2022-11-02T22:17:49.207Z,36.28
2022-11-02T22:20:56.914Z,35.08
2022-11-02T22:24:01.449Z,35.35
2022-11-02T22:27:05.447Z,36.47
2022-11-02T22:30:09.347Z,33.10
2022-11-02T22:33:13.067Z,33.25
2022-11-02T22:36:17.725Z,34.40
2022-11-02T22:39:19.908Z,37.58
2022-11-02T22:42:22.042Z,38.63
2022-11-02T22:45:24.110Z,35.30
2022-11-02T22:48:26.073Z,36.45
2022-11-02T22:51:30.387Z,29.98
2022-11-02T22:54:32.870Z,30.60
2022-11-02T22:57:34.828Z,29.60
2022-11-02T23:00:37.018Z,31.75
2022-11-02T23:03:39.433Z,29.67
2022-11-02T23:06:41.539Z,28.05
2022-11-02T23:09:43.543Z,28.15
2022-11-02T23:12:45.487Z,32.90
2022-11-02T23:15:47.611Z,30.75
2022-11-02T23:19:08.221Z,28.00
2022-11-02T23:22:30.785Z,25.05
2022-11-02T23:25:32.784Z,26.70
2022-11-02T23:28:53.113Z,25.37
2022-11-02T23:32:13.816Z,22.98
2022-11-02T23:35:34.583Z,25.23
2022-11-02T23:38:55.885Z,25.08
2022-11-02T23:41:58.019Z,31.30
2022-11-02T23:45:00.103Z,24.97
2022-11-02T23:48:06.955Z,27.15
2022-11-02T23:51:30.466Z,24.45
2022-11-02T23:54:51.089Z,24.55
2022-11-02T23:57:53.070Z,27.90
